This is the latest recevied weather packets stored in our database for station/object OE7DRT-13. If no packets are shown the sender has not sent any weather packets the latest 10 day(s).
| Time | Temp. | Humidity | Pressure | Rain* | Wind** | Luminosity | Snow |
|---|---|---|---|---|---|---|---|
| 1777873530 | 9.44° C | 68% | 1016.7 hPa | 0 mm | - | - | - |
| 1777872323 | 9.44° C | 68% | 1016.7 hPa | 0 mm | - | - | - |
| 1777869025 | 10.56° C | 58% | 1016.8 hPa | 0 mm | - | - | - |
| 1777867235 | 10.56° C | 56% | 1016.7 hPa | 0 mm | - | - | - |
| 1777865123 | 10.56° C | 56% | 1016.8 hPa | 0 mm | - | - | - |
| 1777864822 | 10.56° C | 57% | 1016.8 hPa | 0 mm | - | - | - |
| 1777863032 | 10° C | 60% | 1016.8 hPa | 0 mm | - | - | - |
| 1777857622 | 11.67° C | 58% | 1016.6 hPa | 0 mm | - | - | - |
| 1777852835 | 12.22° C | 59% | 1017 hPa | 0 mm | - | - | - |
| 1777850421 | 12.22° C | 58% | 1016.8 hPa | 0 mm | - | - | - |
| 1777850120 | 12.78° C | 57% | 1016.9 hPa | 0 mm | - | - | - |
| 1777848028 | 12.78° C | 55% | 1016.8 hPa | 0 mm | - | - | - |
| 1777847726 | 12.78° C | 57% | 1016.8 hPa | 0 mm | - | - | - |
| 1777845333 | 13.33° C | 53% | 1016.7 hPa | 0 mm | - | - | - |
| 1777844428 | 13.33° C | 53% | 1016.6 hPa | 0 mm | - | - | - |
| 1777842619 | 13.33° C | 54% | 1016.4 hPa | 0 mm | - | - | - |
| 1777841733 | 13.33° C | 54% | 1016.4 hPa | 0 mm | - | - | - |
| 1777840526 | 13.33° C | 53% | 1016.2 hPa | 0 mm | - | - | - |
| 1777840224 | 13.33° C | 55% | 1016.2 hPa | 0 mm | - | - | - |
| 1777837831 | 13.89° C | 54% | 1016.1 hPa | 0 mm | - | - | - |
| 1777835721 | 15° C | 51% | 1015.9 hPa | 0 mm | - | - | - |
| 1777834834 | 15° C | 49% | 1015.7 hPa | 0 mm | - | - | - |
| 1777832736 | 17.78° C | 38% | 1015.7 hPa | 0 mm | - | - | - |
| 1777831227 | 18.33° C | 38% | 1015.5 hPa | 0 mm | - | - | - |
| 1777830925 | 18.33° C | 37% | 1015.5 hPa | 0 mm | - | - | - |
* Rain latest hour (hover to see other rain measurements)
** Current wind speed in m/s (hover to see current wind gust speed)